Pell City, Alabama
Current Conditions -  °F | °C
As of 2:55 PM on Friday 31 Oct 2014 (Local Time) from KASN Reporting Station
Overcast Overcast  
Wind Chill: 64°   Ceiling: 5500
Heat Index: 64°   Visibility: 10mi
Dew Point: 47°   Wind: 6mph
Humidity: 54%   Direction: 330°NNW
Pressure: 29.94"   Gusts: NA
Location:  33.59°N, 86.29°W
Report Text: KASN 311955Z AUTO 33005KT 10SM SCT041 BKN055 OVC100 18/08 A2994 RMK AO2 T01750082
Loading
Personal Weather Stations






























Interactive Weather Map New forecast layout! Learn more

10-Day Weather Forecast

Advertisements
Track Severe Weather on mobile